sensor_id;sensor_type;location;lat;lon;timestamp;pressure;altitude;pressure_sealevel;temperature
59339;BMP280;45117;50.960;5.500;2023-11-19T00:02:13;99425.69;;;12.58
59339;BMP280;45117;50.960;5.500;2023-11-19T00:04:40;99424.91;;;12.58
59339;BMP280;45117;50.960;5.500;2023-11-19T00:07:08;99429.84;;;12.59
59339;BMP280;45117;50.960;5.500;2023-11-19T00:09:37;99413.97;;;12.52
59339;BMP280;45117;50.960;5.500;2023-11-19T00:12:05;99422.38;;;12.54
59339;BMP280;45117;50.960;5.500;2023-11-19T00:14:32;99416.84;;;12.58
59339;BMP280;45117;50.960;5.500;2023-11-19T00:16:59;99440.50;;;12.63
59339;BMP280;45117;50.960;5.500;2023-11-19T00:19:26;99439.75;;;12.62
59339;BMP280;45117;50.960;5.500;2023-11-19T00:21:53;99423.28;;;12.60
59339;BMP280;45117;50.960;5.500;2023-11-19T00:24:21;99420.59;;;12.60
59339;BMP280;45117;50.960;5.500;2023-11-19T00:26:47;99427.47;;;12.61
59339;BMP280;45117;50.960;5.500;2023-11-19T00:29:14;99421.66;;;12.63
59339;BMP280;45117;50.960;5.500;2023-11-19T00:31:41;99413.31;;;12.70
59339;BMP280;45117;50.960;5.500;2023-11-19T00:34:07;99391.56;;;12.55
59339;BMP280;45117;50.960;5.500;2023-11-19T00:36:34;99398.78;;;12.68
59339;BMP280;45117;50.960;5.500;2023-11-19T00:39:00;99402.22;;;12.68
59339;BMP280;45117;50.960;5.500;2023-11-19T00:41:28;99387.47;;;12.73
59339;BMP280;45117;50.960;5.500;2023-11-19T00:43:55;99388.31;;;12.70
59339;BMP280;45117;50.960;5.500;2023-11-19T00:46:21;99395.22;;;12.71
59339;BMP280;45117;50.960;5.500;2023-11-19T00:48:48;99387.72;;;12.75
59339;BMP280;45117;50.960;5.500;2023-11-19T00:51:14;99391.63;;;12.74
59339;BMP280;45117;50.960;5.500;2023-11-19T00:53:41;99380.09;;;12.73
59339;BMP280;45117;50.960;5.500;2023-11-19T00:56:08;99387.72;;;12.75
59339;BMP280;45117;50.960;5.500;2023-11-19T00:58:38;99393.13;;;12.75
59339;BMP280;45117;50.960;5.500;2023-11-19T01:01:05;99388.50;;;12.75
59339;BMP280;45117;50.960;5.500;2023-11-19T01:03:32;99381.44;;;12.69
59339;BMP280;45117;50.960;5.500;2023-11-19T01:05:59;99389.25;;;12.76
59339;BMP280;45117;50.960;5.500;2023-11-19T01:08:27;99393.28;;;12.71
59339;BMP280;45117;50.960;5.500;2023-11-19T01:10:54;99385.50;;;12.73
59339;BMP280;45117;50.960;5.500;2023-11-19T01:13:20;99391.84;;;12.79
59339;BMP280;45117;50.960;5.500;2023-11-19T01:15:49;99392.09;;;12.81
59339;BMP280;45117;50.960;5.500;2023-11-19T01:18:15;99390.16;;;12.82
59339;BMP280;45117;50.960;5.500;2023-11-19T01:20:42;99368.63;;;12.73
59339;BMP280;45117;50.960;5.500;2023-11-19T01:23:09;99388.97;;;12.83
59339;BMP280;45117;50.960;5.500;2023-11-19T01:25:35;99387.34;;;12.85
59339;BMP280;45117;50.960;5.500;2023-11-19T01:28:03;99385.84;;;12.84
59339;BMP280;45117;50.960;5.500;2023-11-19T01:30:30;99386.59;;;12.85
59339;BMP280;45117;50.960;5.500;2023-11-19T01:32:58;99377.03;;;12.84
59339;BMP280;45117;50.960;5.500;2023-11-19T01:35:25;99368.19;;;12.83
59339;BMP280;45117;50.960;5.500;2023-11-19T01:37:52;99355.16;;;12.82
59339;BMP280;45117;50.960;5.500;2023-11-19T01:40:21;99358.47;;;12.86
59339;BMP280;45117;50.960;5.500;2023-11-19T01:42:48;99343.06;;;12.86
59339;BMP280;45117;50.960;5.500;2023-11-19T01:45:22;99350.09;;;12.84
59339;BMP280;45117;50.960;5.500;2023-11-19T01:47:53;99347.41;;;12.84
59339;BMP280;45117;50.960;5.500;2023-11-19T01:50:21;99339.19;;;12.87
59339;BMP280;45117;50.960;5.500;2023-11-19T01:52:50;99338.13;;;12.85
59339;BMP280;45117;50.960;5.500;2023-11-19T01:55:17;99340.22;;;12.90
59339;BMP280;45117;50.960;5.500;2023-11-19T01:57:44;99349.50;;;12.89
59339;BMP280;45117;50.960;5.500;2023-11-19T02:00:11;99351.00;;;12.90
59339;BMP280;45117;50.960;5.500;2023-11-19T02:02:39;99340.38;;;12.86
59339;BMP280;45117;50.960;5.500;2023-11-19T02:05:06;99337.53;;;12.90
59339;BMP280;45117;50.960;5.500;2023-11-19T02:07:34;99336.47;;;12.87
59339;BMP280;45117;50.960;5.500;2023-11-19T02:10:00;99332.41;;;12.83
59339;BMP280;45117;50.960;5.500;2023-11-19T02:12:27;99335.56;;;12.90
59339;BMP280;45117;50.960;5.500;2023-11-19T02:14:54;99332.13;;;12.90
59339;BMP280;45117;50.960;5.500;2023-11-19T02:17:27;99341.41;;;12.89
59339;BMP280;45117;50.960;5.500;2023-11-19T02:19:54;99324.66;;;12.85
59339;BMP280;45117;50.960;5.500;2023-11-19T02:22:20;99361.63;;;12.84
59339;BMP280;45117;50.960;5.500;2023-11-19T02:24:49;99357.44;;;12.83
59339;BMP280;45117;50.960;5.500;2023-11-19T02:27:27;99353.97;;;12.83
59339;BMP280;45117;50.960;5.500;2023-11-19T02:29:56;99383.75;;;12.79
59339;BMP280;45117;50.960;5.500;2023-11-19T02:32:23;99380.72;;;12.77
59339;BMP280;45117;50.960;5.500;2023-11-19T02:34:52;99376.97;;;12.75
59339;BMP280;45117;50.960;5.500;2023-11-19T02:37:18;99361.25;;;12.73
59339;BMP280;45117;50.960;5.500;2023-11-19T02:39:45;99350.97;;;12.72
59339;BMP280;45117;50.960;5.500;2023-11-19T02:42:11;99353.31;;;12.70
59339;BMP280;45117;50.960;5.500;2023-11-19T02:44:38;99338.38;;;12.69
59339;BMP280;45117;50.960;5.500;2023-11-19T02:47:09;99321.91;;;12.66
59339;BMP280;45117;50.960;5.500;2023-11-19T02:49:36;99312.91;;;12.60
59339;BMP280;45117;50.960;5.500;2023-11-19T02:52:03;99304.09;;;12.60
59339;BMP280;45117;50.960;5.500;2023-11-19T02:54:31;99316.22;;;12.64
59339;BMP280;45117;50.960;5.500;2023-11-19T02:57:00;99303.06;;;12.66
59339;BMP280;45117;50.960;5.500;2023-11-19T02:59:29;99316.38;;;12.70
59339;BMP280;45117;50.960;5.500;2023-11-19T03:02:04;99319.66;;;12.65
59339;BMP280;45117;50.960;5.500;2023-11-19T03:04:33;99319.66;;;12.65
59339;BMP280;45117;50.960;5.500;2023-11-19T03:07:00;99324.59;;;12.66
59339;BMP280;45117;50.960;5.500;2023-11-19T03:09:27;99312.47;;;12.62
59339;BMP280;45117;50.960;5.500;2023-11-19T03:11:54;99284.63;;;12.38
59339;BMP280;45117;50.960;5.500;2023-11-19T03:14:21;99316.66;;;12.54
59339;BMP280;45117;50.960;5.500;2023-11-19T03:16:48;99302.41;;;12.53
59339;BMP280;45117;50.960;5.500;2023-11-19T03:19:16;99315.59;;;12.51
59339;BMP280;45117;50.960;5.500;2023-11-19T03:21:43;99326.31;;;12.42
59339;BMP280;45117;50.960;5.500;2023-11-19T03:24:12;99316.69;;;12.32
59339;BMP280;45117;50.960;5.500;2023-11-19T03:26:40;99332.00;;;12.44
59339;BMP280;45117;50.960;5.500;2023-11-19T03:29:08;99339.78;;;12.42
59339;BMP280;45117;50.960;5.500;2023-11-19T03:31:34;99312.66;;;12.27
59339;BMP280;45117;50.960;5.500;2023-11-19T03:34:01;99329.31;;;12.44
59339;BMP280;45117;50.960;5.500;2023-11-19T03:36:32;99335.25;;;12.39
59339;BMP280;45117;50.960;5.500;2023-11-19T03:39:00;99328.97;;;12.33
59339;BMP280;45117;50.960;5.500;2023-11-19T03:41:27;99326.44;;;12.29
59339;BMP280;45117;50.960;5.500;2023-11-19T03:43:53;99333.41;;;12.27
59339;BMP280;45117;50.960;5.500;2023-11-19T03:46:21;99329.69;;;12.24
59339;BMP280;45117;50.960;5.500;2023-11-19T03:48:49;99322.50;;;12.21
59339;BMP280;45117;50.960;5.500;2023-11-19T03:51:16;99327.75;;;12.25
59339;BMP280;45117;50.960;5.500;2023-11-19T03:53:43;99337.91;;;12.21
59339;BMP280;45117;50.960;5.500;2023-11-19T03:56:11;99332.50;;;12.21
59339;BMP280;45117;50.960;5.500;2023-11-19T03:58:38;99329.22;;;12.26
59339;BMP280;45117;50.960;5.500;2023-11-19T04:01:05;99329.22;;;12.26
59339;BMP280;45117;50.960;5.500;2023-11-19T04:03:32;99329.81;;;12.21
59339;BMP280;45117;50.960;5.500;2023-11-19T04:05:58;99338.19;;;12.23
59339;BMP280;45117;50.960;5.500;2023-11-19T04:08:25;99344.44;;;12.20
59339;BMP280;45117;50.960;5.500;2023-11-19T04:10:51;99360.75;;;12.16
59339;BMP280;45117;50.960;5.500;2023-11-19T04:13:19;99359.22;;;12.15
59339;BMP280;45117;50.960;5.500;2023-11-19T04:15:46;99360.25;;;12.08
59339;BMP280;45117;50.960;5.500;2023-11-19T04:18:12;99356.47;;;12.06
59339;BMP280;45117;50.960;5.500;2023-11-19T04:20:39;99375.00;;;12.04
59339;BMP280;45117;50.960;5.500;2023-11-19T04:23:07;99354.13;;;12.08
59339;BMP280;45117;50.960;5.500;2023-11-19T04:25:35;99359.91;;;12.06
59339;BMP280;45117;50.960;5.500;2023-11-19T04:28:01;99377.47;;;11.98
59339;BMP280;45117;50.960;5.500;2023-11-19T04:30:30;99377.75;;;11.91
59339;BMP280;45117;50.960;5.500;2023-11-19T04:32:57;99379.25;;;11.92
59339;BMP280;45117;50.960;5.500;2023-11-19T04:35:23;99374.63;;;11.93
59339;BMP280;45117;50.960;5.500;2023-11-19T04:37:51;99378.50;;;11.92
59339;BMP280;45117;50.960;5.500;2023-11-19T04:40:17;99372.69;;;11.93
59339;BMP280;45117;50.960;5.500;2023-11-19T04:42:44;99368.91;;;11.91
59339;BMP280;45117;50.960;5.500;2023-11-19T04:45:11;99372.38;;;11.91
59339;BMP280;45117;50.960;5.500;2023-11-19T04:47:39;99382.25;;;11.94
59339;BMP280;45117;50.960;5.500;2023-11-19T04:50:06;99379.66;;;11.91
59339;BMP280;45117;50.960;5.500;2023-11-19T04:52:37;99384.47;;;11.87
59339;BMP280;45117;50.960;5.500;2023-11-19T04:55:06;99372.28;;;11.82
59339;BMP280;45117;50.960;5.500;2023-11-19T04:57:32;99380.25;;;11.86
59339;BMP280;45117;50.960;5.500;2023-11-19T04:59:59;99398.00;;;11.83
59339;BMP280;45117;50.960;5.500;2023-11-19T05:02:25;99383.59;;;11.77
59339;BMP280;45117;50.960;5.500;2023-11-19T05:04:53;99403.78;;;11.82
59339;BMP280;45117;50.960;5.500;2023-11-19T05:07:20;99406.00;;;11.74
59339;BMP280;45117;50.960;5.500;2023-11-19T05:09:46;99394.34;;;11.77
59339;BMP280;45117;50.960;5.500;2023-11-19T05:12:13;99401.69;;;11.76
59339;BMP280;45117;50.960;5.500;2023-11-19T05:14:40;99417.88;;;11.86
59339;BMP280;45117;50.960;5.500;2023-11-19T05:17:13;99417.75;;;11.89
59339;BMP280;45117;50.960;5.500;2023-11-19T05:19:39;99421.53;;;11.92
59339;BMP280;45117;50.960;5.500;2023-11-19T05:22:07;99424.38;;;11.97
59339;BMP280;45117;50.960;5.500;2023-11-19T05:24:34;99435.16;;;11.97
59339;BMP280;45117;50.960;5.500;2023-11-19T05:27:01;99454.72;;;11.98
59339;BMP280;45117;50.960;5.500;2023-11-19T05:29:27;99439.91;;;11.93
59339;BMP280;45117;50.960;5.500;2023-11-19T05:31:54;99445.28;;;11.93
59339;BMP280;45117;50.960;5.500;2023-11-19T05:34:21;99463.81;;;11.91
59339;BMP280;45117;50.960;5.500;2023-11-19T05:36:48;99466.09;;;11.80
59339;BMP280;45117;50.960;5.500;2023-11-19T05:39:16;99478.03;;;11.79
59339;BMP280;45117;50.960;5.500;2023-11-19T05:41:43;99480.38;;;11.77
59339;BMP280;45117;50.960;5.500;2023-11-19T05:44:10;99482.88;;;11.71
59339;BMP280;45117;50.960;5.500;2023-11-19T05:46:36;99471.59;;;11.64
59339;BMP280;45117;50.960;5.500;2023-11-19T05:49:07;99472.34;;;11.64
59339;BMP280;45117;50.960;5.500;2023-11-19T05:51:36;99473.34;;;11.58
59339;BMP280;45117;50.960;5.500;2023-11-19T05:54:04;99483.84;;;11.52
59339;BMP280;45117;50.960;5.500;2023-11-19T05:56:33;99470.44;;;11.52
59339;BMP280;45117;50.960;5.500;2023-11-19T05:59:00;99462.19;;;11.34
59339;BMP280;45117;50.960;5.500;2023-11-19T06:01:28;99464.31;;;11.39
59339;BMP280;45117;50.960;5.500;2023-11-19T06:03:55;99455.50;;;11.38
59339;BMP280;45117;50.960;5.500;2023-11-19T06:06:22;99455.31;;;11.33
59339;BMP280;45117;50.960;5.500;2023-11-19T06:08:49;99440.91;;;11.39
59339;BMP280;45117;50.960;5.500;2023-11-19T06:11:16;99434.81;;;11.26
59339;BMP280;45117;50.960;5.500;2023-11-19T06:13:47;99438.34;;;11.36
59339;BMP280;45117;50.960;5.500;2023-11-19T06:16:15;99437.16;;;11.37
59339;BMP280;45117;50.960;5.500;2023-11-19T06:18:42;99436.00;;;11.25
59339;BMP280;45117;50.960;5.500;2023-11-19T06:21:09;99436.19;;;11.18
59339;BMP280;45117;50.960;5.500;2023-11-19T06:23:35;99433.94;;;11.16
59339;BMP280;45117;50.960;5.500;2023-11-19T06:26:02;99428.03;;;11.21
59339;BMP280;45117;50.960;5.500;2023-11-19T06:28:30;99435.13;;;11.15
59339;BMP280;45117;50.960;5.500;2023-11-19T06:30:58;99437.38;;;11.17
59339;BMP280;45117;50.960;5.500;2023-11-19T06:33:24;99445.88;;;11.15
59339;BMP280;45117;50.960;5.500;2023-11-19T06:35:52;99449.31;;;11.16
59339;BMP280;45117;50.960;5.500;2023-11-19T06:38:19;99455.72;;;11.06
59339;BMP280;45117;50.960;5.500;2023-11-19T06:40:46;99465.09;;;11.01
59339;BMP280;45117;50.960;5.500;2023-11-19T06:43:13;99446.09;;;10.96
59339;BMP280;45117;50.960;5.500;2023-11-19T06:45:40;99451.88;;;10.94
59339;BMP280;45117;50.960;5.500;2023-11-19T06:48:08;99419.63;;;10.81
59339;BMP280;45117;50.960;5.500;2023-11-19T06:50:35;99442.94;;;10.97
59339;BMP280;45117;50.960;5.500;2023-11-19T06:53:02;99451.34;;;10.99
59339;BMP280;45117;50.960;5.500;2023-11-19T06:55:30;99462.28;;;10.92
59339;BMP280;45117;50.960;5.500;2023-11-19T06:57:59;99455.00;;;10.92
59339;BMP280;45117;50.960;5.500;2023-11-19T07:00:25;99464.22;;;10.91
59339;BMP280;45117;50.960;5.500;2023-11-19T07:02:52;99462.41;;;10.88
59339;BMP280;45117;50.960;5.500;2023-11-19T07:05:20;99460.66;;;10.82
59339;BMP280;45117;50.960;5.500;2023-11-19T07:07:46;99450.72;;;10.95
59339;BMP280;45117;50.960;5.500;2023-11-19T07:10:13;99450.47;;;10.89
59339;BMP280;45117;50.960;5.500;2023-11-19T07:12:40;99451.47;;;10.96
59339;BMP280;45117;50.960;5.500;2023-11-19T07:15:08;99436.09;;;10.96
59339;BMP280;45117;50.960;5.500;2023-11-19T07:17:35;99447.13;;;10.98
59339;BMP280;45117;50.960;5.500;2023-11-19T07:20:01;99456.72;;;10.99
59339;BMP280;45117;50.960;5.500;2023-11-19T07:22:29;99453.94;;;11.03
59339;BMP280;45117;50.960;5.500;2023-11-19T07:24:56;99458.66;;;11.11
59339;BMP280;45117;50.960;5.500;2023-11-19T07:27:23;99464.78;;;11.12
59339;BMP280;45117;50.960;5.500;2023-11-19T07:29:50;99476.38;;;11.21
59339;BMP280;45117;50.960;5.500;2023-11-19T07:32:17;99485.09;;;11.26
59339;BMP280;45117;50.960;5.500;2023-11-19T07:34:43;99500.66;;;11.31
59339;BMP280;45117;50.960;5.500;2023-11-19T07:37:10;99515.56;;;11.32
59339;BMP280;45117;50.960;5.500;2023-11-19T07:39:38;99498.59;;;11.22
59339;BMP280;45117;50.960;5.500;2023-11-19T07:42:06;99517.19;;;11.29
59339;BMP280;45117;50.960;5.500;2023-11-19T07:44:32;99517.31;;;11.26
59339;BMP280;45117;50.960;5.500;2023-11-19T07:46:59;99527.41;;;11.34
59339;BMP280;45117;50.960;5.500;2023-11-19T07:49:26;99528.59;;;11.33
59339;BMP280;45117;50.960;5.500;2023-11-19T07:51:52;99537.41;;;11.34
59339;BMP280;45117;50.960;5.500;2023-11-19T07:54:19;99530.63;;;11.29
59339;BMP280;45117;50.960;5.500;2023-11-19T07:56:48;99538.59;;;11.33
59339;BMP280;45117;50.960;5.500;2023-11-19T07:59:15;99539.97;;;11.37
59339;BMP280;45117;50.960;5.500;2023-11-19T08:01:41;99550.72;;;11.37
59339;BMP280;45117;50.960;5.500;2023-11-19T08:04:08;99559.09;;;11.39
59339;BMP280;45117;50.960;5.500;2023-11-19T08:06:35;99563.19;;;11.44
59339;BMP280;45117;50.960;5.500;2023-11-19T08:09:02;99562.03;;;11.45
59339;BMP280;45117;50.960;5.500;2023-11-19T08:11:28;99572.66;;;11.48
59339;BMP280;45117;50.960;5.500;2023-11-19T08:13:56;99580.31;;;11.50
59339;BMP280;45117;50.960;5.500;2023-11-19T08:16:23;99582.53;;;11.51
59339;BMP280;45117;50.960;5.500;2023-11-19T08:18:49;99590.06;;;11.57
59339;BMP280;45117;50.960;5.500;2023-11-19T08:21:16;99589.22;;;11.60
59339;BMP280;45117;50.960;5.500;2023-11-19T08:23:42;99600.31;;;11.62
59339;BMP280;45117;50.960;5.500;2023-11-19T08:26:09;99602.66;;;11.60
59339;BMP280;45117;50.960;5.500;2023-11-19T08:28:37;99604.28;;;11.70
59339;BMP280;45117;50.960;5.500;2023-11-19T08:31:05;99605.44;;;11.69
59339;BMP280;45117;50.960;5.500;2023-11-19T08:33:32;99629.44;;;11.76
59339;BMP280;45117;50.960;5.500;2023-11-19T08:35:58;99625.88;;;11.92
59339;BMP280;45117;50.960;5.500;2023-11-19T08:38:26;99638.13;;;12.05
59339;BMP280;45117;50.960;5.500;2023-11-19T08:40:52;99657.06;;;12.15
59339;BMP280;45117;50.960;5.500;2023-11-19T08:43:24;99666.09;;;12.21
59339;BMP280;45117;50.960;5.500;2023-11-19T08:45:51;99669.84;;;12.23
59339;BMP280;45117;50.960;5.500;2023-11-19T08:48:19;99681.69;;;12.26
59339;BMP280;45117;50.960;5.500;2023-11-19T08:50:45;99670.59;;;12.24
59339;BMP280;45117;50.960;5.500;2023-11-19T08:53:12;99691.78;;;12.47
59339;BMP280;45117;50.960;5.500;2023-11-19T08:55:39;99709.78;;;12.38
59339;BMP280;45117;50.960;5.500;2023-11-19T08:58:05;99691.91;;;12.31
59339;BMP280;45117;50.960;5.500;2023-11-19T09:00:32;99701.91;;;12.43
59339;BMP280;45117;50.960;5.500;2023-11-19T09:02:58;99721.34;;;12.73
59339;BMP280;45117;50.960;5.500;2023-11-19T09:05:26;99764.19;;;13.14
59339;BMP280;45117;50.960;5.500;2023-11-19T09:07:53;99767.56;;;13.28
59339;BMP280;45117;50.960;5.500;2023-11-19T09:10:20;99811.69;;;13.56
59339;BMP280;45117;50.960;5.500;2023-11-19T09:12:46;99825.47;;;13.58
59339;BMP280;45117;50.960;5.500;2023-11-19T09:15:13;99823.06;;;13.60
59339;BMP280;45117;50.960;5.500;2023-11-19T09:17:40;99834.16;;;13.40
59339;BMP280;45117;50.960;5.500;2023-11-19T09:20:07;99816.13;;;13.49
59339;BMP280;45117;50.960;5.500;2023-11-19T09:22:38;99820.50;;;13.56
59339;BMP280;45117;50.960;5.500;2023-11-19T09:25:05;99846.75;;;13.77
59339;BMP280;45117;50.960;5.500;2023-11-19T09:27:32;99849.22;;;13.94
59339;BMP280;45117;50.960;5.500;2023-11-19T09:29:59;99856.47;;;13.97
59339;BMP280;45117;50.960;5.500;2023-11-19T09:32:25;99866.69;;;13.80
59339;BMP280;45117;50.960;5.500;2023-11-19T09:34:52;99842.13;;;13.87
59339;BMP280;45117;50.960;5.500;2023-11-19T09:37:19;99841.00;;;13.75
59339;BMP280;45117;50.960;5.500;2023-11-19T09:39:47;99868.88;;;13.94
59339;BMP280;45117;50.960;5.500;2023-11-19T09:42:13;99846.66;;;13.68
59339;BMP280;45117;50.960;5.500;2023-11-19T09:44:43;99820.22;;;13.41
59339;BMP280;45117;50.960;5.500;2023-11-19T09:47:11;99809.59;;;13.38
59339;BMP280;45117;50.960;5.500;2023-11-19T09:49:38;99811.53;;;13.37
59339;BMP280;45117;50.960;5.500;2023-11-19T09:52:05;99835.91;;;13.34
59339;BMP280;45117;50.960;5.500;2023-11-19T09:54:32;99841.94;;;13.38
59339;BMP280;45117;50.960;5.500;2023-11-19T09:57:01;99846.44;;;13.41
59339;BMP280;45117;50.960;5.500;2023-11-19T09:59:29;99861.19;;;13.14
59339;BMP280;45117;50.960;5.500;2023-11-19T10:01:56;99819.03;;;13.08
59339;BMP280;45117;50.960;5.500;2023-11-19T10:04:23;99760.38;;;12.90
59339;BMP280;45117;50.960;5.500;2023-11-19T10:06:51;99725.72;;;12.92
59339;BMP280;45117;50.960;5.500;2023-11-19T10:09:18;99711.66;;;12.97
59339;BMP280;45117;50.960;5.500;2023-11-19T10:11:44;99737.69;;;13.35
59339;BMP280;45117;50.960;5.500;2023-11-19T10:14:13;99756.19;;;13.45
59339;BMP280;45117;50.960;5.500;2023-11-19T10:16:40;99761.44;;;13.49
59339;BMP280;45117;50.960;5.500;2023-11-19T10:19:12;99798.94;;;13.56
59339;BMP280;45117;50.960;5.500;2023-11-19T10:21:45;99812.97;;;13.73
59339;BMP280;45117;50.960;5.500;2023-11-19T10:24:12;99839.44;;;13.87
59339;BMP280;45117;50.960;5.500;2023-11-19T10:26:40;99814.47;;;13.74
59339;BMP280;45117;50.960;5.500;2023-11-19T10:29:07;99843.63;;;13.66
59339;BMP280;45117;50.960;5.500;2023-11-19T10:31:35;99851.63;;;13.70
59339;BMP280;45117;50.960;5.500;2023-11-19T10:34:01;99843.91;;;13.59
59339;BMP280;45117;50.960;5.500;2023-11-19T10:36:37;99861.53;;;13.51
59339;BMP280;45117;50.960;5.500;2023-11-19T10:39:06;99827.84;;;13.56
59339;BMP280;45117;50.960;5.500;2023-11-19T10:41:34;99840.81;;;13.48
59339;BMP280;45117;50.960;5.500;2023-11-19T10:44:00;99834.56;;;13.51
59339;BMP280;45117;50.960;5.500;2023-11-19T10:46:40;99849.34;;;13.46
59339;BMP280;45117;50.960;5.500;2023-11-19T10:49:07;99833.50;;;13.70
59339;BMP280;45117;50.960;5.500;2023-11-19T10:51:34;99844.59;;;13.72
59339;BMP280;45117;50.960;5.500;2023-11-19T10:54:03;99830.72;;;13.83
59339;BMP280;45117;50.960;5.500;2023-11-19T10:56:31;99839.72;;;13.80
59339;BMP280;45117;50.960;5.500;2023-11-19T10:58:59;99843.22;;;13.90
59339;BMP280;45117;50.960;5.500;2023-11-19T11:01:29;99842.66;;;13.95
59339;BMP280;45117;50.960;5.500;2023-11-19T11:04:02;99828.97;;;14.20
59339;BMP280;45117;50.960;5.500;2023-11-19T11:06:30;99843.50;;;14.13
59339;BMP280;45117;50.960;5.500;2023-11-19T11:08:57;99837.38;;;14.22
59339;BMP280;45117;50.960;5.500;2023-11-19T11:11:24;99854.22;;;14.26
59339;BMP280;45117;50.960;5.500;2023-11-19T11:13:54;99842.63;;;14.26
59339;BMP280;45117;50.960;5.500;2023-11-19T11:16:22;99835.53;;;14.10
59339;BMP280;45117;50.960;5.500;2023-11-19T11:18:50;99847.06;;;14.10
59339;BMP280;45117;50.960;5.500;2023-11-19T11:21:21;99834.38;;;14.20
59339;BMP280;45117;50.960;5.500;2023-11-19T11:24:17;99870.16;;;14.11
59339;BMP280;45117;50.960;5.500;2023-11-19T11:27:11;99814.50;;;14.05
59339;BMP280;45117;50.960;5.500;2023-11-19T11:29:47;99847.78;;;14.02
59339;BMP280;45117;50.960;5.500;2023-11-19T11:32:27;99825.03;;;14.12
59339;BMP280;45117;50.960;5.500;2023-11-19T11:35:08;99808.69;;;13.84
59339;BMP280;45117;50.960;5.500;2023-11-19T11:37:44;99816.50;;;13.82
59339;BMP280;45117;50.960;5.500;2023-11-19T11:40:14;99810.09;;;13.89
59339;BMP280;45117;50.960;5.500;2023-11-19T11:42:41;99811.94;;;13.79
59339;BMP280;45117;50.960;5.500;2023-11-19T11:45:08;99794.97;;;13.70
59339;BMP280;45117;50.960;5.500;2023-11-19T11:48:15;99797.44;;;13.55
59339;BMP280;45117;50.960;5.500;2023-11-19T11:50:50;99753.03;;;13.47
59339;BMP280;45117;50.960;5.500;2023-11-19T11:53:18;99742.31;;;13.34
59339;BMP280;45117;50.960;5.500;2023-11-19T11:56:09;99721.56;;;13.22
59339;BMP280;45117;50.960;5.500;2023-11-19T11:58:36;99702.19;;;13.14
59339;BMP280;45117;50.960;5.500;2023-11-19T12:01:04;99694.13;;;13.14
59339;BMP280;45117;50.960;5.500;2023-11-19T12:03:34;99695.75;;;13.12
59339;BMP280;45117;50.960;5.500;2023-11-19T12:06:01;99703.09;;;13.11
59339;BMP280;45117;50.960;5.500;2023-11-19T12:08:30;99676.25;;;13.08
59339;BMP280;45117;50.960;5.500;2023-11-19T12:10:58;99673.28;;;13.06
59339;BMP280;45117;50.960;5.500;2023-11-19T12:13:29;99653.16;;;12.98
59339;BMP280;45117;50.960;5.500;2023-11-19T12:16:08;99634.75;;;12.96
59339;BMP280;45117;50.960;5.500;2023-11-19T12:18:39;99654.84;;;13.04
59339;BMP280;45117;50.960;5.500;2023-11-19T12:21:05;99650.84;;;13.09
59339;BMP280;45117;50.960;5.500;2023-11-19T12:23:44;99667.38;;;13.20
59339;BMP280;45117;50.960;5.500;2023-11-19T12:26:21;99690.16;;;13.28
59339;BMP280;45117;50.960;5.500;2023-11-19T12:29:00;99684.50;;;13.26
59339;BMP280;45117;50.960;5.500;2023-11-19T12:31:29;99696.94;;;13.33
59339;BMP280;45117;50.960;5.500;2023-11-19T12:33:55;99708.09;;;13.44
59339;BMP280;45117;50.960;5.500;2023-11-19T12:36:22;99703.16;;;13.42
59339;BMP280;45117;50.960;5.500;2023-11-19T12:38:50;99709.28;;;13.43
59339;BMP280;45117;50.960;5.500;2023-11-19T12:41:17;99728.34;;;13.48
59339;BMP280;45117;50.960;5.500;2023-11-19T12:43:47;99723.75;;;13.58
59339;BMP280;45117;50.960;5.500;2023-11-19T12:46:17;99735.84;;;13.53
59339;BMP280;45117;50.960;5.500;2023-11-19T12:48:45;99735.16;;;13.40
59339;BMP280;45117;50.960;5.500;2023-11-19T12:51:11;99748.13;;;13.54
59339;BMP280;45117;50.960;5.500;2023-11-19T12:53:47;99762.06;;;13.53
59339;BMP280;45117;50.960;5.500;2023-11-19T12:56:16;99770.97;;;13.41
59339;BMP280;45117;50.960;5.500;2023-11-19T12:58:43;99769.16;;;13.38
59339;BMP280;45117;50.960;5.500;2023-11-19T13:01:16;99755.06;;;13.34
59339;BMP280;45117;50.960;5.500;2023-11-19T13:03:43;99767.34;;;13.35
59339;BMP280;45117;50.960;5.500;2023-11-19T13:06:11;99740.63;;;13.28
59339;BMP280;45117;50.960;5.500;2023-11-19T13:08:39;99768.72;;;13.39
59339;BMP280;45117;50.960;5.500;2023-11-19T13:11:06;99769.97;;;13.47
59339;BMP280;45117;50.960;5.500;2023-11-19T13:13:57;99790.16;;;13.43
59339;BMP280;45117;50.960;5.500;2023-11-19T13:16:24;99800.56;;;13.32
59339;BMP280;45117;50.960;5.500;2023-11-19T13:18:51;99772.97;;;13.28
59339;BMP280;45117;50.960;5.500;2023-11-19T13:21:18;99756.63;;;13.22
59339;BMP280;45117;50.960;5.500;2023-11-19T13:23:45;99763.63;;;13.19
59339;BMP280;45117;50.960;5.500;2023-11-19T13:26:11;99748.22;;;13.20
59339;BMP280;45117;50.960;5.500;2023-11-19T13:28:38;99751.19;;;13.13
59339;BMP280;45117;50.960;5.500;2023-11-19T13:31:06;99757.97;;;13.27
59339;BMP280;45117;50.960;5.500;2023-11-19T13:33:33;99740.56;;;13.18
59339;BMP280;45117;50.960;5.500;2023-11-19T13:36:01;99733.00;;;13.26
59339;BMP280;45117;50.960;5.500;2023-11-19T13:38:31;99736.50;;;13.36
59339;BMP280;45117;50.960;5.500;2023-11-19T13:40:58;99722.78;;;13.43
59339;BMP280;45117;50.960;5.500;2023-11-19T13:43:24;99725.59;;;13.39
59339;BMP280;45117;50.960;5.500;2023-11-19T13:45:53;99717.03;;;13.41
59339;BMP280;45117;50.960;5.500;2023-11-19T13:48:21;99733.19;;;13.32
59339;BMP280;45117;50.960;5.500;2023-11-19T13:50:48;99730.59;;;13.28
59339;BMP280;45117;50.960;5.500;2023-11-19T13:53:15;99716.94;;;13.22
59339;BMP280;45117;50.960;5.500;2023-11-19T13:55:41;99710.28;;;13.14
59339;BMP280;45117;50.960;5.500;2023-11-19T13:58:08;99690.38;;;13.12
59339;BMP280;45117;50.960;5.500;2023-11-19T14:00:35;99691.72;;;13.16
59339;BMP280;45117;50.960;5.500;2023-11-19T14:03:02;99702.28;;;13.23
59339;BMP280;45117;50.960;5.500;2023-11-19T14:05:30;99700.44;;;13.20
59339;BMP280;45117;50.960;5.500;2023-11-19T14:07:57;99685.34;;;13.23
59339;BMP280;45117;50.960;5.500;2023-11-19T14:10:23;99700.78;;;13.22
59339;BMP280;45117;50.960;5.500;2023-11-19T14:12:50;99711.38;;;13.17
59339;BMP280;45117;50.960;5.500;2023-11-19T14:15:17;99714.19;;;13.13